Time;durP1;ratioP1;P1;durP2;ratioP2;P2;SDS_P1;SDS_P2;PMS_P1;PMS_P2;Temp;Humidity;BMP_temperature;BMP_pressure;BME280_temperature;BME280_humidity;BME280_pressure;Samples;Min_cycle;Max_cycle;Signal;HPM_P1;HPM_P2
2021/01/17 00:01:03;;;;;;;;;;;;;;;4.69;100.00;100017.72;5117118;28;19923;-76
2021/01/17 00:03:29;;;;;;;;;;;;;;;4.69;100.00;100037.09;5099246;28;20299;-76
2021/01/17 00:05:56;;;;;;;;;;;;;;;4.70;100.00;100035.09;5115896;28;20382;-76
2021/01/17 00:08:23;;;;;;;;;;;;;;;4.68;100.00;100032.69;5115868;28;20428;-76
2021/01/17 00:10:49;;;;;;;;;;;;;;;4.67;100.00;100039.41;5116765;28;19963;-76
2021/01/17 00:13:16;;;;;;;;;;;;;;;4.70;100.00;100032.34;5117058;28;19923;-76
2021/01/17 00:15:42;;;;;;;;;;;;;;;4.68;100.00;100032.69;5115618;28;19923;-76
2021/01/17 00:18:09;;;;;;;;;;;;;;;4.70;100.00;100047.00;5098812;28;19977;-76
2021/01/17 00:20:36;;;;;;;;;;;;;;;4.72;100.00;100019.75;5116717;28;20011;-76
2021/01/17 00:23:04;;;;;;;;;;;;;;;4.69;100.00;100022.44;5116798;28;19924;-76
2021/01/17 00:25:31;;;;;;;;;;;;;;;4.72;100.00;100017.00;5116465;28;20358;-76
2021/01/17 00:28:01;;;;;;;;;;;;;;;4.74;100.00;100031.25;5098700;28;20040;-76
2021/01/17 00:30:32;;;;;;;;;;;;;;;4.74;100.00;100024.94;5115842;28;19977;-75
2021/01/17 00:33:00;;;;;;;;;;;;;;;4.74;100.00;100020.19;5116454;28;19930;-76
2021/01/17 00:35:27;;;;;;;;;;;;;;;4.70;100.00;99999.94;5115386;28;19931;-76
2021/01/17 00:37:54;;;;;;;;;;;;;;;4.69;100.00;100014.94;5116489;28;19931;-76
2021/01/17 00:40:21;;;;;;;;;;;;;;;4.70;100.00;100016.53;5114825;28;19931;-76
2021/01/17 00:42:48;;;;;;;;;;;;;;;4.66;100.00;100010.13;5116457;28;19976;-76
2021/01/17 00:45:15;;;;;;;;;;;;;;;4.68;100.00;99996.72;5116437;28;19923;-76
2021/01/17 00:47:43;;;;;;;;;;;;;;;4.68;100.00;100002.25;5116241;28;19930;-76
2021/01/17 00:50:10;;;;;;;;;;;;;;;4.67;100.00;100002.59;5115021;28;19924;-76
2021/01/17 00:52:37;;;;;;;;;;;;;;;4.66;100.00;100015.66;5098129;28;19924;-76
2021/01/17 00:55:04;;;;;;;;;;;;;;;4.66;100.00;100006.56;5097900;28;20343;-76
2021/01/17 00:57:30;;;;;;;;;;;;;;;4.64;100.00;99998.59;5116059;28;19923;-76
2021/01/17 00:59:57;;;;;;;;;;;;;;;4.65;100.00;100019.59;5114817;28;19927;-76
2021/01/17 01:02:23;;;;;;;;;;;;;;;4.67;100.00;100013.69;5114945;28;19923;-76
2021/01/17 01:04:50;;;;;;;;;;;;;;;4.64;100.00;100026.28;5114848;28;19924;-76
2021/01/17 01:07:16;;;;;;;;;;;;;;;4.65;100.00;100027.09;5116002;28;19924;-75
2021/01/17 01:09:43;;;;;;;;;;;;;;;4.63;100.00;100024.69;5114481;28;20327;-76
2021/01/17 01:12:09;;;;;;;;;;;;;;;4.62;100.00;100017.53;5115876;28;19931;-76
2021/01/17 01:14:36;;;;;;;;;;;;;;;4.65;100.00;100019.59;5114668;28;19923;-76
2021/01/17 01:17:02;;;;;;;;;;;;;;;4.66;100.00;100004.59;5114427;28;19924;-76
2021/01/17 01:19:29;;;;;;;;;;;;;;;4.72;100.00;100021.72;5114716;28;20281;-76
2021/01/17 01:21:55;;;;;;;;;;;;;;;4.69;100.00;100003.88;5115572;28;19924;-76
2021/01/17 01:24:22;;;;;;;;;;;;;;;4.68;100.00;100007.78;5115326;28;19955;-76
2021/01/17 01:26:48;;;;;;;;;;;;;;;4.67;100.00;100008.97;5115250;28;19924;-76
2021/01/17 01:29:15;;;;;;;;;;;;;;;4.67;100.00;99995.13;5114056;28;19950;-76
2021/01/17 01:31:42;;;;;;;;;;;;;;;4.67;100.00;99991.53;5114076;28;19985;-76
2021/01/17 01:34:09;;;;;;;;;;;;;;;4.64;100.00;99998.59;5115206;28;20402;-75
2021/01/17 01:36:37;;;;;;;;;;;;;;;4.61;100.00;100010.41;5113817;28;19927;-76
2021/01/17 01:39:05;;;;;;;;;;;;;;;4.45;100.00;100003.31;5113543;28;19931;-75
2021/01/17 01:41:32;;;;;;;;;;;;;;;4.04;100.00;99990.88;5113716;28;19927;-75
2021/01/17 01:43:59;;;;;;;;;;;;;;;3.97;100.00;99993.44;5114729;28;19928;-75
2021/01/17 01:46:26;;;;;;;;;;;;;;;4.17;100.00;99988.78;5114896;28;19924;-75
2021/01/17 01:48:53;;;;;;;;;;;;;;;4.30;100.00;100012.44;5114837;28;19924;-75
2021/01/17 01:51:22;;;;;;;;;;;;;;;4.29;100.00;100025.47;5096568;28;20393;-75
2021/01/17 01:53:49;;;;;;;;;;;;;;;4.39;100.00;100022.13;5114434;28;19924;-75
2021/01/17 01:56:16;;;;;;;;;;;;;;;4.45;100.00;100017.16;5114682;28;19923;-75
2021/01/17 01:58:42;;;;;;;;;;;;;;;4.49;100.00;100018.81;5079588;28;19963;-75
2021/01/17 02:01:09;;;;;;;;;;;;;;;4.55;100.00;100022.91;5113876;28;19924;-74
2021/01/17 02:03:36;;;;;;;;;;;;;;;4.55;100.00;100003.53;5115468;28;20436;-75
2021/01/17 02:06:03;;;;;;;;;;;;;;;4.56;100.00;100018.19;5115224;28;19923;-75
2021/01/17 02:08:56;;;;;;;;;;;;;;;4.52;100.00;100022.84;5115359;27;19932;-75
2021/01/17 02:11:31;;;;;;;;;;;;;;;4.48;100.00;100022.78;5083329;28;19984;-76
2021/01/17 02:14:05;;;;;;;;;;;;;;;4.41;100.00;100019.81;5115315;28;19977;-75
2021/01/17 02:16:32;;;;;;;;;;;;;;;4.39;100.00;100024.91;5115083;28;19923;-75
2021/01/17 02:19:00;;;;;;;;;;;;;;;4.38;100.00;100001.16;5113835;28;19924;-75
2021/01/17 02:21:27;;;;;;;;;;;;;;;4.43;100.00;100025.81;5114522;28;19931;-75
2021/01/17 02:24:00;;;;;;;;;;;;;;;4.39;100.00;100035.19;5114717;28;20008;-75
2021/01/17 02:26:27;;;;;;;;;;;;;;;4.41;100.00;100014.28;5113573;28;19924;-76
2021/01/17 02:28:54;;;;;;;;;;;;;;;4.35;100.00;100029.56;5113403;28;20532;-75
2021/01/17 02:31:21;;;;;;;;;;;;;;;4.31;100.00;100023.16;5113490;28;19930;-75
2021/01/17 02:33:48;;;;;;;;;;;;;;;4.20;100.00;100027.59;5113517;28;19923;-75
2021/01/17 02:36:14;;;;;;;;;;;;;;;4.17;100.00;100019.22;5113006;28;19931;-75
2021/01/17 02:38:49;;;;;;;;;;;;;;;4.16;100.00;100020.38;5113449;28;19924;-75
2021/01/17 02:41:15;;;;;;;;;;;;;;;4.13;100.00;100002.56;5114388;28;19924;-75
2021/01/17 02:43:42;;;;;;;;;;;;;;;4.20;100.00;100015.72;5113569;28;19967;-76
2021/01/17 02:46:10;;;;;;;;;;;;;;;4.17;100.00;100020.03;5113341;28;20015;-75
2021/01/17 02:48:36;;;;;;;;;;;;;;;4.15;100.00;100018.78;5113314;28;19985;-75
2021/01/17 02:51:03;;;;;;;;;;;;;;;4.16;100.00;100036.97;5114156;28;19924;-76
2021/01/17 02:53:33;;;;;;;;;;;;;;;4.10;100.00;100033.69;5114497;28;20358;-75
2021/01/17 02:56:02;;;;;;;;;;;;;;;4.06;100.00;100038.31;5118561;28;19924;-75
2021/01/17 02:58:29;;;;;;;;;;;;;;;4.01;100.00;100040.56;5117517;28;19923;-75
2021/01/17 03:00:57;;;;;;;;;;;;;;;3.96;100.00;100038.03;5118494;28;19928;-75
2021/01/17 03:03:37;;;;;;;;;;;;;;;3.91;100.00;100047.41;5118591;28;19928;-75
2021/01/17 03:06:06;;;;;;;;;;;;;;;3.87;100.00;100045.72;5117974;28;19927;-75
2021/01/17 03:08:34;;;;;;;;;;;;;;;3.91;100.00;100058.47;5118471;28;19929;-76
2021/01/17 03:11:00;;;;;;;;;;;;;;;3.96;100.00;100069.28;5117323;28;19924;-75
2021/01/17 03:13:27;;;;;;;;;;;;;;;3.94;100.00;100077.13;5118432;28;20420;-75
2021/01/17 03:15:53;;;;;;;;;;;;;;;3.87;100.00;100063.13;5118007;28;19924;-76
2021/01/17 03:18:20;;;;;;;;;;;;;;;3.85;100.00;100067.41;5118202;28;19923;-75
2021/01/17 03:20:46;;;;;;;;;;;;;;;3.86;100.00;100055.19;5116642;28;20008;-75
2021/01/17 03:23:13;;;;;;;;;;;;;;;3.87;100.00;100067.84;5117172;28;19977;-75
2021/01/17 03:25:39;;;;;;;;;;;;;;;3.90;100.00;100070.69;5116946;28;19931;-75
2021/01/17 03:28:05;;;;;;;;;;;;;;;3.93;100.00;100053.41;5118115;28;19968;-75
2021/01/17 03:30:32;;;;;;;;;;;;;;;3.97;100.00;100068.09;5082669;28;19946;-75
2021/01/17 03:33:04;;;;;;;;;;;;;;;3.94;100.00;100074.34;5117873;28;19927;-76
2021/01/17 03:35:31;;;;;;;;;;;;;;;3.92;100.00;100082.22;5117912;28;19928;-75
2021/01/17 03:37:58;;;;;;;;;;;;;;;3.90;100.00;100081.75;5117800;28;19924;-75
2021/01/17 03:40:25;;;;;;;;;;;;;;;3.88;100.00;100092.38;5116372;28;19928;-75
2021/01/17 03:42:51;;;;;;;;;;;;;;;3.95;100.00;100087.03;5117726;28;20382;-75
2021/01/17 03:45:18;;;;;;;;;;;;;;;3.92;100.00;100075.88;5117687;28;19934;-75
2021/01/17 03:47:44;;;;;;;;;;;;;;;3.88;100.00;100092.38;5116165;28;19955;-75
2021/01/17 03:50:11;;;;;;;;;;;;;;;3.88;100.00;100100.66;5116288;28;19966;-75
2021/01/17 03:52:39;;;;;;;;;;;;;;;3.89;100.00;100105.06;5117559;27;20362;-75
2021/01/17 03:55:05;;;;;;;;;;;;;;;3.93;100.00;100092.13;5117427;28;19931;-75
2021/01/17 03:57:32;;;;;;;;;;;;;;;3.93;100.00;100096.81;5117441;28;19940;-75
2021/01/17 03:59:58;;;;;;;;;;;;;;;3.89;100.00;100102.28;5117306;28;19924;-75
2021/01/17 04:02:25;;;;;;;;;;;;;;;3.92;100.00;100086.94;5115950;28;19927;-75
2021/01/17 04:04:51;;;;;;;;;;;;;;;3.92;100.00;100104.34;5117212;28;19924;-75
2021/01/17 04:07:18;;;;;;;;;;;;;;;3.93;100.00;100111.47;5117187;28;19923;-75
2021/01/17 04:09:44;;;;;;;;;;;;;;;3.91;100.00;100113.00;5098876;28;19927;-75
2021/01/17 04:12:11;;;;;;;;;;;;;;;3.91;100.00;100108.25;5115918;28;20048;-75
2021/01/17 04:14:37;;;;;;;;;;;;;;;3.89;100.00;100088.47;5117263;28;19934;-75
2021/01/17 04:17:04;;;;;;;;;;;;;;;3.87;100.00;100096.28;5116255;28;19942;-75
2021/01/17 04:19:30;;;;;;;;;;;;;;;3.78;100.00;100094.84;5115652;28;19924;-75
2021/01/17 04:21:57;;;;;;;;;;;;;;;3.78;100.00;100070.78;5116848;28;20019;-75
2021/01/17 04:24:23;;;;;;;;;;;;;;;3.83;100.00;100089.88;5116905;28;19924;-75
2021/01/17 04:26:55;;;;;;;;;;;;;;;3.86;100.00;100078.09;5115565;28;19924;-75
2021/01/17 04:29:22;;;;;;;;;;;;;;;3.82;100.00;100082.72;5115666;28;19923;-75
2021/01/17 04:31:49;;;;;;;;;;;;;;;3.82;100.00;100034.94;5115370;28;20014;-75
2021/01/17 04:34:15;;;;;;;;;;;;;;;3.87;100.00;100046.53;5116817;28;19931;-75
2021/01/17 04:36:46;;;;;;;;;;;;;;;3.83;100.00;100034.59;5115433;28;19931;-75
2021/01/17 04:39:12;;;;;;;;;;;;;;;3.78;100.00;99993.38;5115373;28;19924;-75
2021/01/17 04:41:41;;;;;;;;;;;;;;;3.75;100.00;100032.78;5116500;28;19927;-75
2021/01/17 04:44:08;;;;;;;;;;;;;;;3.68;100.00;99991.94;5116408;27;20012;-75
2021/01/17 04:46:36;;;;;;;;;;;;;;;3.62;100.00;100006.34;5116215;28;20362;-75
2021/01/17 04:49:04;;;;;;;;;;;;;;;3.56;100.00;99999.47;5116377;28;20247;-75
2021/01/17 04:51:31;;;;;;;;;;;;;;;3.50;100.00;100009.19;5116359;28;20374;-75
2021/01/17 04:53:58;;;;;;;;;;;;;;;3.51;100.00;100005.28;5116310;28;19931;-75
2021/01/17 04:56:28;;;;;;;;;;;;;;;3.56;100.00;99969.09;5116166;28;19923;-75
2021/01/17 04:59:11;;;;;;;;;;;;;;;3.57;100.00;99992.81;5116181;28;19927;-75
2021/01/17 05:01:46;;;;;;;;;;;;;;;3.58;100.00;100030.34;5114713;28;19969;-75
2021/01/17 05:04:41;;;;;;;;;;;;;;;3.61;100.00;100021.34;5116128;28;20297;-75
2021/01/17 05:07:24;;;;;;;;;;;;;;;3.63;100.00;100008.75;5097800;28;19993;-75
2021/01/17 05:10:06;;;;;;;;;;;;;;;3.59;100.00;100041.03;5115934;28;19924;-75
2021/01/17 05:12:36;;;;;;;;;;;;;;;3.69;100.00;100025.91;5114612;28;19923;-75
2021/01/17 05:15:03;;;;;;;;;;;;;;;3.61;100.00;100035.16;5097499;28;19927;-75
2021/01/17 05:17:36;;;;;;;;;;;;;;;3.59;100.00;100024.47;5114918;27;20020;-75
2021/01/17 05:20:03;;;;;;;;;;;;;;;3.58;100.00;100046.91;5115491;28;20340;-75
2021/01/17 05:22:31;;;;;;;;;;;;;;;3.62;100.00;100047.81;5115647;28;19923;-75
2021/01/17 05:24:58;;;;;;;;;;;;;;;3.64;100.00;100038.03;5115672;28;19923;-75
2021/01/17 05:27:24;;;;;;;;;;;;;;;3.59;100.00;100057.63;5115514;28;20282;-75
2021/01/17 05:29:51;;;;;;;;;;;;;;;3.58;100.00;100020.09;5113697;28;19931;-75
2021/01/17 05:32:17;;;;;;;;;;;;;;;3.54;100.00;100048.78;5115366;28;19950;-75
2021/01/17 05:34:44;;;;;;;;;;;;;;;3.49;100.00;100057.34;5115338;28;19927;-75
2021/01/17 05:37:12;;;;;;;;;;;;;;;3.53;100.00;100045.22;5115297;28;19973;-75
2021/01/17 05:39:53;;;;;;;;;;;;;;;3.50;100.00;100031.28;5115111;28;19930;-75
2021/01/17 05:42:21;;;;;;;;;;;;;;;3.55;100.00;100007.00;5115094;28;20312;-76
2021/01/17 05:44:47;;;;;;;;;;;;;;;3.59;100.00;100048.53;5113595;28;19924;-74
2021/01/17 05:47:20;;;;;;;;;;;;;;;3.63;100.00;100085.38;5113813;28;19950;-75
2021/01/17 05:49:50;;;;;;;;;;;;;;;3.65;100.00;100091.31;5113877;28;19923;-75
2021/01/17 05:52:18;;;;;;;;;;;;;;;3.62;100.00;100081.78;5114868;28;20020;-75
2021/01/17 05:54:49;;;;;;;;;;;;;;;3.55;100.00;100072.50;5114712;28;19927;-75
2021/01/17 05:57:25;;;;;;;;;;;;;;;3.48;100.00;100088.91;5114997;28;19924;-75
2021/01/17 05:59:53;;;;;;;;;;;;;;;3.56;100.00;100091.50;5114621;28;19924;-75
2021/01/17 06:02:20;;;;;;;;;;;;;;;3.53;100.00;100085.84;5113478;28;19928;-75
2021/01/17 06:04:59;;;;;;;;;;;;;;;3.59;100.00;100101.03;5114851;28;19924;-75
2021/01/17 06:07:27;;;;;;;;;;;;;;;3.58;100.00;100124.31;5114613;28;20068;-75
2021/01/17 06:09:56;;;;;;;;;;;;;;;3.59;100.00;100129.47;5114517;28;19924;-75
2021/01/17 06:12:28;;;;;;;;;;;;;;;3.63;100.00;100108.25;5113630;28;19927;-75
2021/01/17 06:15:02;;;;;;;;;;;;;;;3.59;100.00;100112.09;5114538;28;19973;-75
2021/01/17 06:17:30;;;;;;;;;;;;;;;3.49;100.00;100112.59;5114434;28;19967;-75
2021/01/17 06:19:57;;;;;;;;;;;;;;;3.47;100.00;100131.47;5113378;28;19993;-75
2021/01/17 06:22:24;;;;;;;;;;;;;;;3.46;100.00;100125.16;5113326;28;19964;-75
2021/01/17 06:24:57;;;;;;;;;;;;;;;3.58;100.00;100157.47;5114639;28;19923;-75
2021/01/17 06:27:25;;;;;;;;;;;;;;;3.57;100.00;100159.41;5113229;28;20956;-74
2021/01/17 06:29:56;;;;;;;;;;;;;;;3.63;100.00;100163.53;5112152;28;20333;-75
2021/01/17 06:32:43;;;;;;;;;;;;;;;3.66;100.00;100173.91;5114466;28;19924;-75
2021/01/17 06:35:29;;;;;;;;;;;;;;;3.65;100.00;100158.47;5114340;28;20015;-75
2021/01/17 06:37:55;;;;;;;;;;;;;;;3.68;100.00;100143.16;5114445;28;19923;-75
2021/01/17 06:40:29;;;;;;;;;;;;;;;3.73;100.00;100145.66;5113012;28;19923;-75
2021/01/17 06:42:56;;;;;;;;;;;;;;;3.67;100.00;100169.19;5112864;28;19924;-75
2021/01/17 06:45:22;;;;;;;;;;;;;;;3.66;100.00;100148.22;5114357;28;19988;-75
2021/01/17 06:47:52;;;;;;;;;;;;;;;3.61;100.00;100178.88;5113127;28;19923;-75
2021/01/17 06:50:22;;;;;;;;;;;;;;;3.70;100.00;100174.00;5113077;28;20263;-75
2021/01/17 06:52:53;;;;;;;;;;;;;;;3.62;100.00;100164.72;5112853;28;20305;-75
2021/01/17 06:55:20;;;;;;;;;;;;;;;3.62;100.00;100155.59;5113000;28;19930;-75
2021/01/17 06:57:46;;;;;;;;;;;;;;;3.57;100.00;100162.19;5096218;28;20325;-75
2021/01/17 07:00:17;;;;;;;;;;;;;;;3.63;100.00;100168.28;5114068;28;19931;-75
2021/01/17 07:02:50;;;;;;;;;;;;;;;3.74;100.00;100174.94;5112989;28;19924;-75
2021/01/17 07:05:31;;;;;;;;;;;;;;;3.62;100.00;100172.19;5114225;28;20370;-75
2021/01/17 07:08:01;;;;;;;;;;;;;;;3.63;100.00;100179.34;5112903;28;20355;-75
2021/01/17 07:10:33;;;;;;;;;;;;;;;3.61;100.00;100189.94;5112748;28;19931;-74
2021/01/17 07:13:07;;;;;;;;;;;;;;;3.64;100.00;100150.53;5112950;28;19923;-75
2021/01/17 07:15:33;;;;;;;;;;;;;;;3.72;100.00;100163.41;5114041;28;20411;-75
2021/01/17 07:18:01;;;;;;;;;;;;;;;3.73;100.00;100190.72;5112736;28;20316;-75
2021/01/17 07:20:28;;;;;;;;;;;;;;;3.72;100.00;100157.88;5113948;28;20374;-75
2021/01/17 07:22:59;;;;;;;;;;;;;;;3.69;100.00;100183.47;5113986;28;19932;-75
2021/01/17 07:25:26;;;;;;;;;;;;;;;3.57;100.00;100202.84;5112610;28;20535;-75
2021/01/17 07:28:06;;;;;;;;;;;;;;;3.54;100.00;100209.88;5096013;28;19928;-75
2021/01/17 07:30:33;;;;;;;;;;;;;;;3.64;100.00;100208.59;5112971;28;19931;-75
2021/01/17 07:33:02;;;;;;;;;;;;;;;3.67;100.00;100213.41;5113917;28;19976;-75
2021/01/17 07:35:34;;;;;;;;;;;;;;;3.68;100.00;100220.56;5112799;28;20275;-75
2021/01/17 07:38:07;;;;;;;;;;;;;;;3.60;100.00;100216.75;5114084;28;19969;-75
2021/01/17 07:40:50;;;;;;;;;;;;;;;3.59;100.00;100241.97;5114963;28;20517;-75
2021/01/17 07:43:33;;;;;;;;;;;;;;;3.57;100.00;100252.59;5116543;28;19924;-75
2021/01/17 07:46:01;;;;;;;;;;;;;;;3.59;100.00;100244.75;5117789;28;19924;-75
2021/01/17 07:48:28;;;;;;;;;;;;;;;3.55;100.00;100243.84;5116443;28;20337;-76
2021/01/17 07:50:56;;;;;;;;;;;;;;;3.67;100.00;100280.56;5117563;28;20343;-75
2021/01/17 07:53:38;;;;;;;;;;;;;;;3.69;100.00;100281.03;5117590;28;20307;-76
2021/01/17 07:56:07;;;;;;;;;;;;;;;3.70;100.00;100304.75;5117289;28;19928;-75
2021/01/17 07:58:37;;;;;;;;;;;;;;;3.69;100.00;100302.34;5116222;28;20305;-75
2021/01/17 08:01:03;;;;;;;;;;;;;;;3.68;100.00;100306.25;5116178;28;19970;-75
2021/01/17 08:03:35;;;;;;;;;;;;;;;3.67;100.00;100312.91;5116075;28;20287;-75
2021/01/17 08:06:07;;;;;;;;;;;;;;;3.65;100.00;100320.75;5115479;28;19924;-75
2021/01/17 08:08:33;;;;;;;;;;;;;;;3.65;100.00;100329.03;5117245;28;19976;-75
2021/01/17 08:11:00;;;;;;;;;;;;;;;3.60;100.00;100340.34;5117253;28;20375;-75
2021/01/17 08:13:33;;;;;;;;;;;;;;;3.58;100.00;100345.41;5117299;28;19924;-76
2021/01/17 08:16:09;;;;;;;;;;;;;;;3.57;100.00;100341.03;5117002;28;19923;-75
2021/01/17 08:18:36;;;;;;;;;;;;;;;3.55;100.00;100359.91;5116952;28;19946;-75
2021/01/17 08:21:21;;;;;;;;;;;;;;;3.53;100.00;100378.78;5116853;28;19924;-76
2021/01/17 08:24:07;;;;;;;;;;;;;;;3.54;100.00;100370.16;5116304;28;19924;-75
2021/01/17 08:26:52;;;;;;;;;;;;;;;3.77;100.00;100386.28;5114220;28;19932;-75
2021/01/17 08:29:19;;;;;;;;;;;;;;;3.87;100.00;100428.09;5106726;28;19974;-75
2021/01/17 08:31:45;;;;;;;;;;;;;;;3.92;100.00;100447.25;5116958;28;20007;-75
2021/01/17 08:34:13;;;;;;;;;;;;;;;3.97;100.00;100451.72;5117024;28;19930;-75
2021/01/17 08:36:40;;;;;;;;;;;;;;;3.92;100.00;100458.31;5115645;28;19923;-74
2021/01/17 08:39:07;;;;;;;;;;;;;;;3.93;100.00;100464.63;5098423;28;19924;-75
2021/01/17 08:41:35;;;;;;;;;;;;;;;3.92;100.00;100447.25;5115576;28;19968;-75
2021/01/17 08:44:01;;;;;;;;;;;;;;;3.92;100.00;100469.38;5115475;28;19986;-75
2021/01/17 08:46:33;;;;;;;;;;;;;;;3.92;100.00;100451.94;5116666;28;19924;-76
2021/01/17 08:49:00;;;;;;;;;;;;;;;3.91;100.00;100472.47;5116570;28;19924;-76
2021/01/17 08:51:26;;;;;;;;;;;;;;;3.95;100.00;100481.69;5114545;28;20019;-76
2021/01/17 08:53:53;;;;;;;;;;;;;;;3.92;100.00;100477.66;5097087;28;19924;-77
2021/01/17 08:56:20;;;;;;;;;;;;;;;3.94;100.00;100478.09;5098366;28;19931;-76
2021/01/17 08:58:54;;;;;;;;;;;;;;;3.94;100.00;100471.78;5116455;28;19928;-76
2021/01/17 09:01:21;;;;;;;;;;;;;;;3.92;100.00;100474.91;5098312;28;20022;-76
2021/01/17 09:03:57;;;;;;;;;;;;;;;3.98;100.00;100487.34;5116301;28;20377;-76
2021/01/17 09:06:28;;;;;;;;;;;;;;;3.95;100.00;100474.19;5116305;28;20328;-77
2021/01/17 09:08:57;;;;;;;;;;;;;;;3.98;100.00;100484.56;5115499;28;20375;-77
2021/01/17 09:11:31;;;;;;;;;;;;;;;3.95;100.00;100479.72;5114945;28;20285;-77
2021/01/17 09:14:07;;;;;;;;;;;;;;;3.99;100.00;100480.66;5116156;28;19924;-77
2021/01/17 09:16:43;;;;;;;;;;;;;;;4.03;100.00;100480.78;5114458;28;20418;-77
2021/01/17 09:19:10;;;;;;;;;;;;;;;4.08;100.00;100478.56;5114347;28;19924;-77
2021/01/17 09:21:37;;;;;;;;;;;;;;;4.06;100.00;100478.09;5114164;28;19976;-76
2021/01/17 09:24:10;;;;;;;;;;;;;;;4.05;100.00;100468.19;5114448;28;19951;-81
2021/01/17 09:26:39;;;;;;;;;;;;;;;4.05;100.00;100476.50;5114368;28;19924;-75
2021/01/17 09:29:05;;;;;;;;;;;;;;;4.01;100.00;100483.88;5115489;28;20109;-76
2021/01/17 09:31:33;;;;;;;;;;;;;;;3.95;100.00;100498.28;5113958;28;20008;-75
2021/01/17 09:33:59;;;;;;;;;;;;;;;3.94;100.00;100499.44;5115648;28;19947;-75
2021/01/17 09:36:26;;;;;;;;;;;;;;;4.00;100.00;100512.66;5113853;28;19924;-75
2021/01/17 09:38:52;;;;;;;;;;;;;;;3.98;100.00;100503.94;5115043;28;19959;-76
2021/01/17 09:41:23;;;;;;;;;;;;;;;4.05;100.00;100508.88;5109336;28;20317;-74
2021/01/17 09:43:50;;;;;;;;;;;;;;;4.07;100.00;100504.63;5108439;28;19977;-74
2021/01/17 09:46:20;;;;;;;;;;;;;;;4.04;100.00;100516.38;5112815;28;19958;-74
2021/01/17 09:48:56;;;;;;;;;;;;;;;4.02;100.00;100491.00;5114844;28;19928;-74
2021/01/17 09:51:24;;;;;;;;;;;;;;;4.06;100.00;100516.81;5113062;28;19930;-74
2021/01/17 09:53:53;;;;;;;;;;;;;;;4.09;100.00;100518.91;5096981;28;19924;-74
2021/01/17 09:56:21;;;;;;;;;;;;;;;4.05;100.00;100517.16;5113821;28;20010;-74
2021/01/17 09:58:48;;;;;;;;;;;;;;;4.07;100.00;100521.22;5113467;28;19934;-74
2021/01/17 10:01:21;;;;;;;;;;;;;;;4.13;100.00;100525.38;5096587;28;20019;-74
2021/01/17 10:03:48;;;;;;;;;;;;;;;4.15;100.00;100527.78;5113499;28;19924;-74
2021/01/17 10:06:15;;;;;;;;;;;;;;;4.18;100.00;100533.41;5114612;28;19973;-73
2021/01/17 10:08:42;;;;;;;;;;;;;;;4.16;100.00;100552.34;5113490;28;19924;-77
2021/01/17 10:11:09;;;;;;;;;;;;;;;4.18;100.00;100544.50;5113508;28;20371;-75
2021/01/17 10:13:35;;;;;;;;;;;;;;;4.21;100.00;100560.41;5114380;28;19924;-74
2021/01/17 10:16:02;;;;;;;;;;;;;;;4.28;100.00;100555.13;5114496;28;19953;-76
2021/01/17 10:18:28;;;;;;;;;;;;;;;4.27;100.00;100547.94;5114451;28;20016;-76
2021/01/17 10:20:55;;;;;;;;;;;;;;;4.29;100.00;100550.38;5114295;28;19928;-76
2021/01/17 10:23:29;;;;;;;;;;;;;;;4.34;100.00;100564.78;5113319;28;19992;-76
2021/01/17 10:25:56;;;;;;;;;;;;;;;4.42;100.00;100571.38;5113373;28;20469;-76
2021/01/17 10:28:26;;;;;;;;;;;;;;;4.46;100.00;100589.69;5114507;28;20011;-73
2021/01/17 10:30:56;;;;;;;;;;;;;;;4.55;100.00;100554.41;5114558;28;19928;-76
2021/01/17 10:33:23;;;;;;;;;;;;;;;4.52;100.00;100570.88;5114466;28;19977;-76
2021/01/17 10:35:49;;;;;;;;;;;;;;;4.53;100.00;100575.28;5114033;28;19951;-76
2021/01/17 10:38:17;;;;;;;;;;;;;;;4.48;100.00;100559.72;5113157;28;20014;-77
2021/01/17 10:40:44;;;;;;;;;;;;;;;4.49;100.00;100589.00;5114252;28;20391;-75
2021/01/17 10:43:29;;;;;;;;;;;;;;;4.49;100.00;100583.47;5114413;28;19930;-75
2021/01/17 10:46:19;;;;;;;;;;;;;;;4.55;100.00;100593.16;5113028;28;19931;-76
2021/01/17 10:49:06;;;;;;;;;;;;;;;4.59;100.00;100577.47;5112539;28;19955;-75
2021/01/17 10:51:50;;;;;;;;;;;;;;;4.58;100.00;100592.47;5112842;28;19923;-76
2021/01/17 10:54:22;;;;;;;;;;;;;;;4.59;100.00;100587.75;5112617;28;20282;-76
2021/01/17 10:56:50;;;;;;;;;;;;;;;4.63;100.00;100577.56;5111442;28;19939;-75
2021/01/17 10:59:17;;;;;;;;;;;;;;;4.68;100.00;100588.44;5112512;28;19985;-75
2021/01/17 11:01:44;;;;;;;;;;;;;;;4.74;100.00;100589.81;5113458;28;19977;-76
2021/01/17 11:04:13;;;;;;;;;;;;;;;4.72;100.00;100587.38;5113821;28;19985;-76
2021/01/17 11:06:42;;;;;;;;;;;;;;;4.73;100.00;100583.44;5109301;28;19924;-75
2021/01/17 11:09:16;;;;;;;;;;;;;;;4.82;100.00;100597.97;5113677;28;19931;-75
2021/01/17 11:11:51;;;;;;;;;;;;;;;4.79;100.00;100589.53;5112778;28;19931;-75
2021/01/17 11:14:27;;;;;;;;;;;;;;;4.81;100.00;100579.75;5113706;28;19924;-75
2021/01/17 11:16:54;;;;;;;;;;;;;;;4.82;100.00;100586.91;5116159;28;19927;-76
2021/01/17 11:19:33;;;;;;;;;;;;;;;4.87;100.00;100597.75;5116401;28;20006;-76
2021/01/17 11:22:00;;;;;;;;;;;;;;;4.92;100.00;100599.47;5118002;28;19927;-76
2021/01/17 11:24:34;;;;;;;;;;;;;;;4.94;100.00;100577.75;5116753;28;19981;-76
2021/01/17 11:27:11;;;;;;;;;;;;;;;4.99;100.00;100602.44;5118038;28;19924;-78
2021/01/17 11:29:38;;;;;;;;;;;;;;;5.10;100.00;100600.81;5117776;28;19930;-76
2021/01/17 11:32:05;;;;;;;;;;;;;;;5.07;100.00;100599.53;5117656;28;20022;-76
2021/01/17 11:34:36;;;;;;;;;;;;;;;5.05;100.00;100601.84;5099660;28;20053;-76
2021/01/17 11:37:03;;;;;;;;;;;;;;;5.12;100.00;100602.06;5117967;28;19927;-76
2021/01/17 11:39:29;;;;;;;;;;;;;;;5.13;100.00;100602.88;5117710;28;19924;-76
2021/01/17 11:41:56;;;;;;;;;;;;;;;5.11;100.00;100594.09;5099504;28;19924;-75
2021/01/17 11:44:24;;;;;;;;;;;;;;;5.12;100.00;100592.94;5116162;28;20251;-76
2021/01/17 11:46:51;;;;;;;;;;;;;;;5.12;100.00;100576.31;5117195;28;19927;-76
2021/01/17 11:49:22;;;;;;;;;;;;;;;5.14;100.00;100583.13;5116218;28;20265;-76
2021/01/17 11:51:48;;;;;;;;;;;;;;;5.16;100.00;100571.69;5116329;28;20018;-76
2021/01/17 11:54:24;;;;;;;;;;;;;;;5.15;100.00;100562.56;5116299;28;19927;-76
2021/01/17 11:57:01;;;;;;;;;;;;;;;5.20;100.00;100565.09;5116128;28;19976;-76
2021/01/17 11:59:30;;;;;;;;;;;;;;;5.25;100.00;100566.81;5117530;28;19924;-75
2021/01/17 12:01:57;;;;;;;;;;;;;;;5.30;100.00;100566.56;5115950;28;19923;-76
2021/01/17 12:04:25;;;;;;;;;;;;;;;5.25;100.00;100552.94;5117356;28;20009;-75
2021/01/17 12:07:11;;;;;;;;;;;;;;;5.28;100.00;100543.94;5117260;28;19924;-75
2021/01/17 12:09:38;;;;;;;;;;;;;;;5.30;100.00;100531.31;5117226;28;19977;-77
2021/01/17 12:12:09;;;;;;;;;;;;;;;5.33;100.00;100525.06;5115947;28;19955;-76
2021/01/17 12:14:37;;;;;;;;;;;;;;;5.31;100.00;100505.25;5116045;28;20323;-75
2021/01/17 12:17:07;;;;;;;;;;;;;;;5.32;100.00;100517.13;5115301;28;19924;-76
2021/01/17 12:19:36;;;;;;;;;;;;;;;5.32;100.00;100512.38;5116939;28;19959;-76
2021/01/17 12:22:07;;;;;;;;;;;;;;;5.34;100.00;100498.19;5115561;28;19924;-78
2021/01/17 12:24:38;;;;;;;;;;;;;;;5.36;100.00;100482.00;5115806;28;20029;-76
2021/01/17 12:27:05;;;;;;;;;;;;;;;5.34;100.00;100479.59;5114393;28;19928;-76
2021/01/17 12:29:31;;;;;;;;;;;;;;;5.33;100.00;100486.28;5116848;28;19969;-75
2021/01/17 12:31:58;;;;;;;;;;;;;;;5.34;100.00;100471.28;5116650;28;20038;-76
2021/01/17 12:34:25;;;;;;;;;;;;;;;5.36;100.00;100473.69;5115552;28;19951;-75
2021/01/17 12:36:51;;;;;;;;;;;;;;;5.38;100.00;100469.38;5115521;28;19977;-75
2021/01/17 12:39:18;;;;;;;;;;;;;;;5.34;100.00;100471.28;5116728;28;19993;-75
2021/01/17 12:41:46;;;;;;;;;;;;;;;5.43;100.00;100458.06;5115401;28;19928;-73
2021/01/17 12:44:13;;;;;;;;;;;;;;;5.40;100.00;100458.75;5110269;28;19924;-76
2021/01/17 12:46:40;;;;;;;;;;;;;;;5.38;100.00;100444.44;5116014;28;20026;-76
2021/01/17 12:49:06;;;;;;;;;;;;;;;5.42;100.00;100450.88;5115170;28;19963;-76